Time;durP1;ratioP1;P1;durP2;ratioP2;P2;SDS_P1;SDS_P2;PMS_P1;PMS_P2;Temp;Humidity;BMP_temperature;BMP_pressure;BME280_temperature;BME280_humidity;BME280_pressure;Samples;Min_cycle;Max_cycle;Signal;HPM_P1;HPM_P2
2022/04/15 00:02:12;;;;;;;8.65;4.03;;;;;;;6.78;53.25;99043.28;4379691;32;20118;-67
2022/04/15 00:04:40;;;;;;;8.25;4.32;;;;;;;6.91;52.28;99043.28;4380032;32;20102;-67
2022/04/15 00:07:07;;;;;;;7.07;3.78;;;;;;;6.99;51.04;99043.56;4379795;32;20165;-67
2022/04/15 00:09:35;;;;;;;8.43;4.35;;;;;;;7.08;51.20;99039.50;4379835;32;20087;-67
2022/04/15 00:12:07;;;;;;;17.67;4.40;;;;;;;7.14;50.71;99039.06;4378988;32;20125;-67
2022/04/15 00:14:34;;;;;;;9.55;3.78;;;;;;;7.17;50.71;99030.19;4379902;32;20109;-67
2022/04/15 00:17:03;;;;;;;12.55;4.43;;;;;;;7.20;52.05;99023.00;4379768;32;20083;-67
2022/04/15 00:19:30;;;;;;;7.45;4.47;;;;;;;7.05;53.63;99035.31;4379649;32;20105;-67
2022/04/15 00:21:57;;;;;;;10.82;4.82;;;;;;;6.89;54.19;99025.16;4379714;32;20122;-67
2022/04/15 00:24:25;;;;;;;12.00;4.47;;;;;;;6.76;55.38;99024.34;4379827;32;20094;-67
2022/04/15 00:26:53;;;;;;;6.72;4.10;;;;;;;6.59;55.97;99022.09;4379763;32;20090;-67
2022/04/15 00:29:20;;;;;;;8.82;3.87;;;;;;;6.49;55.35;99021.88;4379773;32;20161;-67
2022/04/15 00:31:47;;;;;;;6.82;4.10;;;;;;;6.41;55.87;99019.81;4379717;32;20095;-67
2022/04/15 00:34:14;;;;;;;6.93;3.85;;;;;;;6.37;55.95;99023.53;4379710;32;20121;-67
2022/04/15 00:36:41;;;;;;;9.93;4.15;;;;;;;6.34;55.34;99022.00;4379668;32;20095;-67
2022/04/15 00:39:08;;;;;;;6.07;3.70;;;;;;;6.34;55.14;99023.75;4379544;32;20095;-67
2022/04/15 00:41:36;;;;;;;7.55;3.50;;;;;;;6.30;55.33;99023.13;4379678;32;20090;-67
2022/04/15 00:44:03;;;;;;;5.72;3.55;;;;;;;6.23;56.93;99024.47;4379546;32;20099;-67
2022/04/15 00:46:30;;;;;;;7.95;3.22;;;;;;;6.16;57.46;99015.41;4379578;32;20134;-67
2022/04/15 00:48:58;;;;;;;8.77;3.50;;;;;;;6.08;58.35;99018.53;4379494;32;20090;-67
2022/04/15 00:51:28;;;;;;;7.43;3.90;;;;;;;6.07;57.18;99021.22;4379536;32;20136;-67
2022/04/15 00:53:57;;;;;;;6.22;3.25;;;;;;;6.02;57.63;99017.16;4379589;32;20130;-67
2022/04/15 00:56:29;;;;;;;6.37;3.42;;;;;;;5.96;57.31;99016.72;4366070;32;20162;-67
2022/04/15 00:58:58;;;;;;;8.38;3.42;;;;;;;5.95;57.62;99007.25;4366504;32;20527;-67
2022/04/15 01:01:26;;;;;;;7.25;3.67;;;;;;;5.92;57.81;99010.03;4365743;32;20125;-67
2022/04/15 01:03:54;;;;;;;7.53;3.70;;;;;;;5.90;58.00;99007.53;4379353;32;20107;-67
2022/04/15 01:06:24;;;;;;;9.75;4.45;;;;;;;5.91;58.05;99005.81;4366289;32;20463;-67
2022/04/15 01:08:53;;;;;;;9.13;3.92;;;;;;;5.90;58.21;99001.53;4365998;32;20420;-67
2022/04/15 01:11:21;;;;;;;7.62;3.78;;;;;;;5.81;58.66;98998.62;4379417;32;20102;-67
2022/04/15 01:13:50;;;;;;;5.75;3.50;;;;;;;5.75;58.86;98996.38;4379357;32;20099;-67
2022/04/15 01:16:18;;;;;;;7.93;3.80;;;;;;;5.71;58.95;98989.75;4365975;32;20095;-67
2022/04/15 01:18:46;;;;;;;8.65;3.28;;;;;;;5.80;57.59;98993.50;4365983;32;20471;-67
2022/04/15 01:21:15;;;;;;;10.23;3.92;;;;;;;5.86;56.84;98993.94;4379359;32;20111;-67
2022/04/15 01:23:42;;;;;;;5.68;3.85;;;;;;;5.86;56.85;98995.72;4365577;32;20103;-67
2022/04/15 01:26:09;;;;;;;6.68;3.90;;;;;;;5.81;57.09;98987.34;4379386;32;20453;-67
2022/04/15 01:28:37;;;;;;;5.78;3.60;;;;;;;5.76;58.01;98990.25;4379303;32;20095;-67
2022/04/15 01:31:04;;;;;;;6.20;3.80;;;;;;;5.72;58.25;98985.38;4379339;32;20121;-67
2022/04/15 01:33:31;;;;;;;8.52;3.90;;;;;;;5.65;58.66;98980.56;4379347;32;20404;-67
2022/04/15 01:35:58;;;;;;;6.57;3.58;;;;;;;5.61;59.08;98991.28;4379213;32;20618;-67
2022/04/15 01:38:25;;;;;;;8.35;3.50;;;;;;;5.58;58.90;98984.50;4379231;32;20090;-67
2022/04/15 01:40:53;;;;;;;9.80;4.62;;;;;;;5.57;60.47;98987.19;4365851;32;20121;-67
2022/04/15 01:43:20;;;;;;;12.20;4.12;;;;;;;5.48;60.76;98983.44;4365687;32;20115;-67
2022/04/15 01:45:47;;;;;;;6.68;4.43;;;;;;;5.45;60.64;98986.22;4379170;32;20167;-67
2022/04/15 01:48:15;;;;;;;8.45;4.30;;;;;;;5.45;60.32;98981.03;4379223;32;20109;-67
2022/04/15 01:50:42;;;;;;;9.75;4.03;;;;;;;5.45;60.07;98986.22;4379102;32;20121;-67
2022/04/15 01:53:09;;;;;;;10.65;4.30;;;;;;;5.42;60.35;98984.69;4378895;32;20121;-67
2022/04/15 01:55:36;;;;;;;9.00;3.78;;;;;;;5.40;60.28;98978.72;4379107;32;20083;-67
2022/04/15 01:58:04;;;;;;;8.30;4.20;;;;;;;5.38;60.55;98980.59;4379115;32;20651;-67
2022/04/15 02:00:31;;;;;;;8.70;4.47;;;;;;;5.44;60.45;98976.78;4378949;32;20502;-67
2022/04/15 02:02:58;;;;;;;9.30;4.87;;;;;;;5.48;59.15;98973.03;4379013;32;20107;-67
2022/04/15 02:05:26;;;;;;;8.30;4.60;;;;;;;5.46;58.41;98977.50;4378996;32;20109;-67
2022/04/15 02:07:53;;;;;;;8.43;4.30;;;;;;;5.47;58.34;98976.59;4378943;32;20086;-67
2022/04/15 02:10:21;;;;;;;11.15;3.95;;;;;;;5.45;59.35;98970.63;4378900;32;20182;-67
2022/04/15 02:12:48;;;;;;;9.45;4.00;;;;;;;5.37;59.61;98968.53;4378998;32;20094;-67
2022/04/15 02:15:15;;;;;;;9.32;4.65;;;;;;;5.32;60.03;98975.81;4378905;32;20090;-67
2022/04/15 02:17:42;;;;;;;8.25;4.30;;;;;;;5.29;60.37;98968.22;4378876;32;20166;-67
2022/04/15 02:20:11;;;;;;;7.15;4.00;;;;;;;5.25;60.78;98964.97;4378862;32;20098;-67
2022/04/15 02:22:38;;;;;;;5.57;3.80;;;;;;;5.24;61.56;98965.06;4378753;32;20503;-67
2022/04/15 02:25:06;;;;;;;8.35;4.30;;;;;;;5.20;61.91;98966.22;4378745;32;20110;-67
2022/04/15 02:27:33;;;;;;;7.12;4.28;;;;;;;5.17;61.97;98967.22;4378742;32;20078;-67
2022/04/15 02:30:01;;;;;;;8.20;3.95;;;;;;;5.15;61.72;98967.31;4378795;32;20130;-67
2022/04/15 02:32:30;;;;;;;6.82;4.20;;;;;;;5.15;62.30;98966.50;4378652;32;20091;-67
2022/04/15 02:34:57;;;;;;;9.32;4.28;;;;;;;5.13;62.35;98964.00;4379479;32;20141;-67
2022/04/15 02:37:24;;;;;;;7.70;3.87;;;;;;;5.13;62.43;98958.81;4383638;32;20366;-67
2022/04/15 02:39:53;;;;;;;8.80;3.90;;;;;;;5.15;62.58;98959.53;4383559;32;20145;-67
2022/04/15 02:42:20;;;;;;;12.77;5.20;;;;;;;5.10;62.53;98958.16;4383609;32;20090;-67
2022/04/15 02:44:47;;;;;;;10.63;5.35;;;;;;;5.05;63.06;98952.44;4383774;32;20095;-67
2022/04/15 02:47:14;;;;;;;8.30;4.45;;;;;;;5.03;63.86;98952.53;4383748;32;20105;-67
2022/04/15 02:49:41;;;;;;;9.20;4.22;;;;;;;5.02;63.15;98947.44;4383513;32;20409;-67
2022/04/15 02:52:09;;;;;;;7.32;4.30;;;;;;;5.01;62.02;98949.22;4383611;32;20125;-67
2022/04/15 02:54:36;;;;;;;7.97;3.95;;;;;;;5.06;62.72;98952.34;4383455;32;20576;-67
2022/04/15 02:57:04;;;;;;;13.65;4.18;;;;;;;5.10;62.06;98955.56;4383322;32;20113;-67
2022/04/15 02:59:31;;;;;;;13.43;3.97;;;;;;;5.12;63.56;98949.34;4383355;32;20222;-67
2022/04/15 03:01:58;;;;;;;7.32;4.57;;;;;;;5.08;62.71;98950.47;4383158;32;20137;-67
2022/04/15 03:04:25;;;;;;;9.73;3.95;;;;;;;5.73;56.31;98946.28;4383164;32;20082;-67
2022/04/15 03:06:52;;;;;;;6.93;4.25;;;;;;;5.85;57.49;98944.63;4383489;32;20108;-67
2022/04/15 03:09:21;;;;;;;8.38;4.12;;;;;;;5.82;57.06;98940.47;4383248;32;20131;-67
2022/04/15 03:11:48;;;;;;;8.77;4.50;;;;;;;5.97;55.12;98943.84;4383441;32;20095;-67
2022/04/15 03:14:17;;;;;;;7.85;4.20;;;;;;;6.04;55.31;98949.44;4383226;32;20487;-67
2022/04/15 03:16:44;;;;;;;9.40;4.25;;;;;;;6.22;53.90;98950.81;4382965;32;20133;-67
2022/04/15 03:19:11;;;;;;;13.40;4.32;;;;;;;6.42;52.94;98951.22;4382951;32;20519;-67
2022/04/15 03:21:38;;;;;;;7.97;4.15;;;;;;;6.64;52.12;98947.09;4383097;32;20133;-67
2022/04/15 03:24:06;;;;;;;21.58;4.43;;;;;;;6.85;51.31;98947.38;4382836;32;20146;-66
2022/04/15 03:26:33;;;;;;;10.40;4.50;;;;;;;6.92;51.39;98949.41;4383236;32;20079;-66
2022/04/15 03:29:00;;;;;;;15.07;4.70;;;;;;;6.81;51.85;98948.50;4382875;32;20127;-67
2022/04/15 03:31:28;;;;;;;11.63;4.82;;;;;;;6.64;52.53;98952.31;4382775;32;20158;-66
2022/04/15 03:33:55;;;;;;;12.60;4.43;;;;;;;6.70;52.24;98955.31;4382856;32;20083;-66
2022/04/15 03:36:22;;;;;;;7.50;4.20;;;;;;;6.84;51.70;98943.91;4369325;32;20086;-67
2022/04/15 03:38:50;;;;;;;11.02;4.37;;;;;;;6.82;51.95;98944.97;4382703;32;20121;-67
2022/04/15 03:41:17;;;;;;;10.07;5.72;;;;;;;6.86;51.62;98949.84;4382775;32;20118;-67
2022/04/15 03:43:44;;;;;;;5.22;3.60;;;;;;;7.00;51.19;98948.87;4382586;32;20117;-67
2022/04/15 03:46:11;;;;;;;14.77;4.68;;;;;;;6.91;52.23;98942.53;4382348;32;20079;-67
2022/04/15 03:48:39;;;;;;;8.40;4.40;;;;;;;6.83;52.02;98937.06;4380011;32;20130;-67
2022/04/15 03:51:08;;;;;;;8.35;4.35;;;;;;;6.88;51.84;98928.91;4380023;32;20170;-67
2022/04/15 03:53:36;;;;;;;7.70;4.22;;;;;;;6.96;51.71;98926.59;4380019;32;20157;-67
2022/04/15 03:56:06;;;;;;;8.93;3.92;;;;;;;7.04;52.45;98928.63;4379952;32;20086;-67
2022/04/15 03:58:34;;;;;;;13.27;5.07;;;;;;;6.90;53.01;98933.09;4379878;32;20438;-67
2022/04/15 04:01:03;;;;;;;10.68;4.82;;;;;;;6.72;54.34;98930.00;4379773;32;20118;-67
2022/04/15 04:03:31;;;;;;;8.02;4.32;;;;;;;6.60;55.10;98924.81;4379852;32;20540;-67
2022/04/15 04:05:58;;;;;;;10.63;5.10;;;;;;;6.55;55.11;98931.19;4379874;32;20414;-67
2022/04/15 04:08:25;;;;;;;9.50;4.75;;;;;;;6.52;54.81;98928.78;4379818;32;20106;-67
2022/04/15 04:10:53;;;;;;;12.57;4.87;;;;;;;6.45;56.35;98932.78;4379883;32;20099;-67
2022/04/15 04:13:20;;;;;;;11.73;4.53;;;;;;;6.68;53.62;98922.53;4379928;32;20087;-67
2022/04/15 04:15:47;;;;;;;12.40;5.05;;;;;;;6.89;52.55;98917.56;4378629;32;20102;-67
2022/04/15 04:18:17;;;;;;;9.85;4.70;;;;;;;7.09;51.78;98926.53;4379855;32;20150;-67
2022/04/15 04:20:44;;;;;;;9.23;4.70;;;;;;;7.27;52.23;98930.41;4366326;32;20098;-67
2022/04/15 04:23:12;;;;;;;9.77;4.60;;;;;;;7.34;51.88;98924.75;4379781;32;20098;-67
2022/04/15 04:25:39;;;;;;;9.02;3.83;;;;;;;7.37;52.98;98929.72;4379803;32;20626;-67
2022/04/15 04:28:06;;;;;;;9.10;4.78;;;;;;;7.27;55.75;98934.81;4379741;32;20094;-67
2022/04/15 04:30:33;;;;;;;10.45;4.28;;;;;;;7.17;55.78;98929.41;4379719;32;20117;-67
2022/04/15 04:33:01;;;;;;;9.07;4.97;;;;;;;7.18;55.33;98931.09;4379633;32;20162;-67
2022/04/15 04:35:28;;;;;;;8.32;4.15;;;;;;;7.24;54.59;98940.25;4379564;32;20170;-67
2022/04/15 04:37:56;;;;;;;8.25;4.68;;;;;;;7.33;54.90;98934.34;4379716;32;20118;-67
2022/04/15 04:40:23;;;;;;;7.32;4.60;;;;;;;7.42;54.92;98935.47;4379602;32;20142;-67
2022/04/15 04:42:51;;;;;;;9.52;4.45;;;;;;;7.55;53.49;98936.19;4379708;32;20110;-67
2022/04/15 04:45:19;;;;;;;8.45;4.57;;;;;;;7.79;51.00;98940.53;4366186;32;20125;-67
2022/04/15 04:47:47;;;;;;;7.72;3.97;;;;;;;8.10;49.97;98940.81;4379469;32;20447;-67
2022/04/15 04:50:14;;;;;;;8.15;4.03;;;;;;;8.30;48.20;98947.13;4379697;32;20107;-67
2022/04/15 04:52:41;;;;;;;10.35;4.18;;;;;;;8.53;48.76;98950.59;4379644;32;20404;-67
2022/04/15 04:55:09;;;;;;;7.03;4.20;;;;;;;8.50;49.91;98945.59;4366116;32;20487;-67
2022/04/15 04:57:38;;;;;;;8.35;4.70;;;;;;;8.61;49.69;98953.44;4379426;32;20117;-67
2022/04/15 05:00:07;;;;;;;8.30;4.37;;;;;;;8.64;50.29;98955.78;4379283;32;20247;-67
2022/04/15 05:02:35;;;;;;;7.00;4.03;;;;;;;8.64;51.30;98955.78;4378152;32;20091;-67
2022/04/15 05:05:02;;;;;;;6.72;4.32;;;;;;;8.72;52.43;98959.59;4379376;32;20133;-67
2022/04/15 05:07:30;;;;;;;11.88;5.68;;;;;;;8.75;51.92;98954.97;4379471;32;20475;-67
2022/04/15 05:09:57;;;;;;;8.18;4.50;;;;;;;8.91;51.60;98954.56;4379699;32;20090;-67
2022/04/15 05:12:24;;;;;;;7.57;4.87;;;;;;;9.04;52.88;98957.87;4379392;32;20083;-67
2022/04/15 05:14:51;;;;;;;9.10;4.30;;;;;;;9.15;51.95;98961.41;4379443;32;20120;-67
2022/04/15 05:17:19;;;;;;;10.30;4.72;;;;;;;9.22;50.41;98967.81;4379418;32;20158;-67
2022/04/15 05:19:46;;;;;;;12.60;4.97;;;;;;;9.31;50.20;98964.47;4379480;32;20478;-67
2022/04/15 05:22:13;;;;;;;9.38;4.75;;;;;;;9.46;50.15;98969.38;4379408;32;20090;-67
2022/04/15 05:24:40;;;;;;;12.32;4.93;;;;;;;9.65;49.85;98974.78;4379253;32;20146;-67
2022/04/15 05:27:08;;;;;;;12.73;5.70;;;;;;;9.72;49.18;98968.09;4379315;32;20090;-67
2022/04/15 05:29:35;;;;;;;8.20;4.85;;;;;;;9.79;49.69;98970.19;4379325;32;20121;-67
2022/04/15 05:32:03;;;;;;;12.05;4.87;;;;;;;9.90;49.08;98970.97;4379199;32;20162;-67
2022/04/15 05:34:30;;;;;;;7.75;4.40;;;;;;;10.06;51.25;98967.06;4365601;32;20109;-67
2022/04/15 05:36:57;;;;;;;12.48;5.35;;;;;;;10.20;51.89;98963.28;4379703;32;20116;-67
2022/04/15 05:39:25;;;;;;;9.48;4.80;;;;;;;10.40;51.56;98964.22;4379231;32;20178;-67
2022/04/15 05:41:52;;;;;;;11.10;5.78;;;;;;;10.74;49.07;98963.94;4379296;32;20086;-67
2022/04/15 05:44:19;;;;;;;8.30;5.22;;;;;;;11.02;46.23;98967.59;4379161;32;20098;-67
2022/04/15 05:46:46;;;;;;;11.43;6.28;;;;;;;11.30;46.10;98968.59;4379116;32;20150;-67
2022/04/15 05:49:15;;;;;;;9.50;6.22;;;;;;;11.60;46.46;98968.62;4379221;32;20094;-67
2022/04/15 05:51:43;;;;;;;20.77;5.87;;;;;;;12.02;45.09;98953.41;4365637;32;20094;-67
2022/04/15 05:54:10;;;;;;;10.15;5.95;;;;;;;12.38;45.20;98958.00;4378986;32;20098;-67
2022/04/15 05:56:37;;;;;;;15.95;6.55;;;;;;;12.75;41.68;98960.59;4379047;32;20095;-67
2022/04/15 05:59:05;;;;;;;10.85;5.97;;;;;;;12.98;39.52;98962.00;4379122;32;20094;-67
2022/04/15 06:01:33;;;;;;;14.77;5.50;;;;;;;13.13;41.22;98958.72;4378911;32;20087;-67
2022/04/15 06:04:00;;;;;;;10.52;5.53;;;;;;;13.31;39.99;98958.72;4378815;32;20469;-67
2022/04/15 06:06:28;;;;;;;8.80;5.80;;;;;;;13.47;39.13;98970.41;4378987;32;20515;-67
2022/04/15 06:08:55;;;;;;;12.27;5.72;;;;;;;13.61;36.66;98971.69;4365243;32;20173;-67
2022/04/15 06:11:23;;;;;;;10.75;5.75;;;;;;;13.73;37.52;98975.75;4377887;32;20117;-67
2022/04/15 06:13:52;;;;;;;11.32;5.85;;;;;;;13.93;38.50;98978.19;4378946;32;20194;-67
2022/04/15 06:16:20;;;;;;;21.27;6.40;;;;;;;14.08;35.94;98974.03;4379061;32;20137;-67
2022/04/15 06:18:48;;;;;;;14.43;6.03;;;;;;;14.23;37.18;98976.94;4378895;32;20133;-67
2022/04/15 06:21:35;;;;;;;8.80;5.80;;;;;;;14.43;37.86;98971.41;4378854;32;20101;-67
2022/04/15 06:24:03;;;;;;;13.80;5.30;;;;;;;14.52;37.52;98973.94;4378741;32;20125;-67
2022/04/15 06:26:30;;;;;;;9.98;4.95;;;;;;;14.68;37.61;98975.84;4378743;32;20491;-67
2022/04/15 06:28:58;;;;;;;7.70;5.12;;;;;;;14.81;37.97;98974.59;4378764;32;20173;-67
2022/04/15 06:31:26;;;;;;;10.30;5.70;;;;;;;14.94;35.69;98974.94;4378798;32;20106;-67
2022/04/15 06:33:53;;;;;;;11.63;5.87;;;;;;;14.82;35.43;98976.22;4378671;32;20141;-67
2022/04/15 06:36:20;;;;;;;14.40;5.50;;;;;;;14.91;35.30;98972.63;4378673;32;20124;-67
2022/04/15 06:38:48;;;;;;;9.02;5.82;;;;;;;15.00;37.39;98974.31;4378577;32;20210;-67
2022/04/15 06:41:15;;;;;;;11.38;5.50;;;;;;;15.09;38.32;98972.53;4378663;32;20078;-67
2022/04/15 06:43:42;;;;;;;12.70;5.75;;;;;;;15.20;37.94;98964.31;4378579;32;20121;-67
2022/04/15 06:46:10;;;;;;;9.43;5.78;;;;;;;15.56;37.62;98969.31;4378511;32;20494;-67
2022/04/15 06:48:37;;;;;;;15.40;6.40;;;;;;;15.93;37.71;98975.94;4378585;32;20516;-67
2022/04/15 06:51:04;;;;;;;12.55;6.93;;;;;;;16.30;36.73;98958.69;4378524;32;20445;-67
2022/04/15 06:53:32;;;;;;;19.60;6.12;;;;;;;16.23;34.74;98962.16;4378419;32;20114;-67
2022/04/15 06:55:59;;;;;;;16.95;6.35;;;;;;;16.27;34.80;98958.22;4378657;32;20094;-67
2022/04/15 06:58:26;;;;;;;13.18;6.43;;;;;;;16.21;35.76;98964.16;4378416;32;20202;-67
2022/04/15 07:00:53;;;;;;;11.63;7.45;;;;;;;16.11;34.86;98965.19;4378173;32;20117;-67
2022/04/15 07:03:20;;;;;;;15.55;6.07;;;;;;;15.97;35.24;98960.56;4378392;32;20074;-67
2022/04/15 07:05:49;;;;;;;12.05;6.30;;;;;;;15.90;36.20;98960.41;4378203;32;20116;-67
2022/04/15 07:08:17;;;;;;;12.25;6.15;;;;;;;15.96;37.03;98967.69;4378242;32;20122;-67
2022/04/15 07:10:44;;;;;;;15.13;6.05;;;;;;;16.09;35.25;98967.19;4378178;32;20425;-68
2022/04/15 07:13:12;;;;;;;13.07;6.78;;;;;;;16.31;36.15;98973.56;4378499;32;20083;-67
2022/04/15 07:15:40;;;;;;;10.68;6.43;;;;;;;16.75;36.71;98979.37;4378249;32;20125;-67
2022/04/15 07:18:07;;;;;;;11.43;6.80;;;;;;;16.90;39.97;98982.16;4377987;32;20094;-67
2022/04/15 07:20:35;;;;;;;14.20;6.82;;;;;;;16.82;37.85;98982.97;4378025;32;20152;-67
2022/04/15 07:23:02;;;;;;;9.23;5.90;;;;;;;16.66;36.18;98973.28;4379834;32;20086;-67
2022/04/15 07:25:30;;;;;;;9.35;4.82;;;;;;;16.83;34.22;98980.16;4379934;32;20079;-67
2022/04/15 07:27:57;;;;;;;6.87;5.62;;;;;;;16.81;32.57;98984.00;4380224;32;20595;-67
2022/04/15 07:30:24;;;;;;;11.77;5.90;;;;;;;16.52;33.55;98987.22;4379985;32;20548;-67
2022/04/15 07:32:52;;;;;;;12.52;6.37;;;;;;;16.24;34.23;98988.44;4380272;32;20079;-67
2022/04/15 07:35:19;;;;;;;10.25;6.07;;;;;;;16.09;34.64;98990.97;4380165;32;20094;-67
2022/04/15 07:37:46;;;;;;;12.27;5.62;;;;;;;16.33;32.96;98989.25;4380019;32;20114;-67
2022/04/15 07:40:14;;;;;;;11.40;5.15;;;;;;;16.65;32.25;98990.16;4380032;32;20441;-67
2022/04/15 07:42:41;;;;;;;10.85;5.57;;;;;;;16.72;32.43;98991.12;4380115;32;20157;-67
2022/04/15 07:45:09;;;;;;;11.27;5.62;;;;;;;17.04;33.15;98997.31;4379996;32;20167;-67
2022/04/15 07:47:36;;;;;;;8.68;5.18;;;;;;;17.24;31.65;99002.16;4380092;32;20090;-67
2022/04/15 07:50:22;;;;;;;12.98;5.65;;;;;;;17.33;32.98;99009.06;4380059;32;20162;-67
2022/04/15 07:52:50;;;;;;;12.40;6.62;;;;;;;17.24;31.87;99015.41;4380086;32;20074;-67
2022/04/15 07:55:18;;;;;;;14.52;6.53;;;;;;;17.49;33.06;99019.56;4379821;32;20123;-67
2022/04/15 07:57:45;;;;;;;11.02;6.35;;;;;;;17.03;34.68;99015.00;4380018;32;20095;-67
2022/04/15 08:00:13;;;;;;;12.50;6.47;;;;;;;16.96;36.06;99018.53;4380010;32;20483;-67
2022/04/15 08:02:41;;;;;;;8.88;6.28;;;;;;;16.79;36.78;99028.28;4379755;32;20153;-67
2022/04/15 08:05:08;;;;;;;14.05;6.40;;;;;;;16.74;35.95;99026.16;4379817;32;20430;-67
2022/04/15 08:07:36;;;;;;;11.82;6.65;;;;;;;17.09;35.29;99029.34;4379892;32;20110;-67
2022/04/15 08:10:04;;;;;;;14.07;6.85;;;;;;;17.20;33.24;99015.75;4379737;32;20169;-67
2022/04/15 08:12:32;;;;;;;10.23;6.22;;;;;;;17.33;33.38;99022.28;4379654;32;20125;-67
2022/04/15 08:15:00;;;;;;;14.13;7.25;;;;;;;17.32;34.90;99023.28;4379760;32;20161;-67
2022/04/15 08:17:29;;;;;;;13.50;7.37;;;;;;;17.43;35.45;99027.38;4379879;32;20121;-67
2022/04/15 08:19:58;;;;;;;17.77;7.32;;;;;;;17.49;35.43;99024.84;4379911;32;20083;-67
2022/04/15 08:22:26;;;;;;;15.77;7.60;;;;;;;17.63;34.59;99019.81;4379748;32;20158;-67
2022/04/15 08:24:54;;;;;;;11.85;6.68;;;;;;;17.65;34.36;99009.84;4379712;32;20167;-67
2022/04/15 08:27:25;;;;;;;22.87;7.43;;;;;;;17.98;32.23;99026.34;4379749;32;20122;-67
2022/04/15 08:29:53;;;;;;;13.57;6.00;;;;;;;17.89;32.84;99019.47;4379779;32;20102;-67
2022/04/15 08:32:20;;;;;;;12.25;6.20;;;;;;;17.99;32.47;99017.37;4379520;32;20090;-67
2022/04/15 08:34:47;;;;;;;15.63;6.93;;;;;;;18.03;31.62;99026.63;4379109;32;20432;-67
2022/04/15 08:37:15;;;;;;;16.70;5.45;;;;;;;17.82;31.46;99016.69;4379890;32;20141;-67
2022/04/15 08:39:42;;;;;;;12.75;6.03;;;;;;;17.54;31.29;99014.53;4379686;32;20091;-67
2022/04/15 08:42:10;;;;;;;12.88;6.25;;;;;;;17.66;32.63;99014.16;4379689;32;20479;-67
2022/04/15 08:44:37;;;;;;;16.80;6.28;;;;;;;17.58;32.13;99009.72;4379556;32;20477;-67
2022/04/15 08:47:06;;;;;;;14.70;6.32;;;;;;;17.48;32.74;99004.66;4379659;32;20487;-67
2022/04/15 08:49:34;;;;;;;10.30;6.30;;;;;;;17.60;32.31;99004.25;4379731;32;20087;-67
2022/04/15 08:52:02;;;;;;;13.20;6.43;;;;;;;17.60;32.51;99010.37;4366037;32;20090;-67
2022/04/15 08:54:31;;;;;;;11.90;5.93;;;;;;;17.75;32.46;99013.06;4379605;32;20153;-67
2022/04/15 08:56:58;;;;;;;11.80;5.68;;;;;;;17.55;31.58;99008.25;4379571;32;20158;-67
2022/04/15 08:59:26;;;;;;;13.43;6.40;;;;;;;17.59;31.79;99007.91;4379562;32;20091;-67
2022/04/15 09:01:53;;;;;;;15.82;6.80;;;;;;;17.88;31.25;99013.31;4379341;32;20113;-67
2022/04/15 09:04:20;;;;;;;15.77;7.20;;;;;;;18.09;30.75;99002.06;4379459;32;20086;-67
2022/04/15 09:06:58;;;;;;;13.27;7.53;;;;;;;18.24;31.13;99018.00;4379562;32;20099;-67
2022/04/15 09:09:32;;;;;;;12.75;7.82;;;;;;;18.63;30.84;99003.63;4379498;32;20101;-67
2022/04/15 09:12:03;;;;;;;13.43;7.30;;;;;;;18.39;31.17;99001.25;4379434;32;20083;-67
2022/04/15 09:14:30;;;;;;;8.75;5.60;;;;;;;18.56;31.49;98997.44;4379833;32;20086;-67
2022/04/15 09:17:01;;;;;;;19.70;5.43;;;;;;;18.69;29.47;98993.31;4379557;32;20121;-67
2022/04/15 09:19:29;;;;;;;10.70;5.37;;;;;;;18.88;28.29;98998.09;4379461;32;20113;-67
2022/04/15 09:21:58;;;;;;;11.60;5.82;;;;;;;18.52;28.76;98987.37;4379421;32;20074;-67
2022/04/15 09:24:32;;;;;;;12.52;5.15;;;;;;;18.59;28.72;98998.88;4378277;32;20480;-67
2022/04/15 09:27:05;;;;;;;8.20;5.18;;;;;;;18.85;28.99;98992.28;4379391;32;20147;-67
2022/04/15 09:29:38;;;;;;;9.10;5.10;;;;;;;18.96;28.97;98989.19;4379474;32;20121;-67
2022/04/15 09:32:10;;;;;;;10.60;5.47;;;;;;;18.63;28.36;98995.69;4379414;32;20079;-67
2022/04/15 09:35:00;;;;;;;10.02;5.62;;;;;;;18.44;30.66;98990.94;4379605;32;20464;-67
2022/04/15 09:37:39;;;;;;;9.88;5.97;;;;;;;17.93;31.83;99004.03;4379323;32;20125;-67
2022/04/15 09:40:14;;;;;;;11.55;6.37;;;;;;;17.95;32.24;99002.03;4365713;32;20486;-67
2022/04/15 09:42:53;;;;;;;12.15;6.12;;;;;;;17.91;32.23;98997.09;4379099;32;20078;-67
2022/04/15 09:45:29;;;;;;;12.75;6.30;;;;;;;17.81;32.54;98996.47;4373387;32;20118;-67
2022/04/15 09:48:04;;;;;;;10.63;6.05;;;;;;;17.92;32.72;99003.19;4379208;32;20150;-67
2022/04/15 09:50:37;;;;;;;11.07;5.65;;;;;;;17.93;33.77;98996.09;4379208;32;20137;-67
2022/04/15 09:53:13;;;;;;;12.98;5.53;;;;;;;18.07;33.08;98995.28;4379108;32;20125;-67
2022/04/15 09:55:42;;;;;;;13.68;5.47;;;;;;;18.47;31.67;98985.28;4379243;32;20133;-67
2022/04/15 09:58:11;;;;;;;8.25;5.03;;;;;;;18.11;32.42;98990.44;4379029;32;20094;-67
2022/04/15 10:00:40;;;;;;;12.90;5.57;;;;;;;17.94;33.10;98985.31;4379022;32;20090;-67
2022/04/15 10:03:11;;;;;;;9.80;5.70;;;;;;;17.70;33.13;98978.34;4379088;32;20109;-67
2022/04/15 10:05:38;;;;;;;9.85;5.43;;;;;;;17.86;32.65;98974.72;4379125;32;20149;-67
2022/04/15 10:08:07;;;;;;;10.85;5.40;;;;;;;18.20;32.00;98973.47;4379130;32;20493;-67
2022/04/15 10:10:34;;;;;;;10.30;5.00;;;;;;;18.38;31.49;98967.78;4365444;32;20126;-67
2022/04/15 10:13:05;;;;;;;8.25;4.85;;;;;;;18.53;31.29;98973.94;4365509;32;20075;-67
2022/04/15 10:15:36;;;;;;;9.38;4.93;;;;;;;18.79;29.96;98975.28;4378979;32;20102;-67
2022/04/15 10:18:04;;;;;;;7.20;4.55;;;;;;;19.24;29.51;98981.34;4378912;32;20082;-67
2022/04/15 10:20:32;;;;;;;7.10;5.03;;;;;;;19.41;29.68;98979.28;4379010;32;20087;-67
2022/04/15 10:23:03;;;;;;;7.70;4.53;;;;;;;18.95;30.07;98988.34;4378813;32;20149;-67
2022/04/15 10:25:32;;;;;;;9.45;4.97;;;;;;;19.28;30.59;98987.09;4378840;32;20094;-67
2022/04/15 10:28:13;;;;;;;10.27;5.20;;;;;;;19.60;29.92;98988.44;4365355;32;20098;-67
2022/04/15 10:30:51;;;;;;;8.48;5.03;;;;;;;19.56;29.78;98995.16;4378841;32;20090;-67
2022/04/15 10:33:30;;;;;;;10.45;5.32;;;;;;;19.56;30.17;98991.66;4365621;32;20114;-68
2022/04/15 10:35:58;;;;;;;13.62;5.75;;;;;;;19.56;29.72;99000.47;4378833;32;20457;-67
2022/04/15 10:38:25;;;;;;;10.18;5.40;;;;;;;19.07;30.72;99007.28;4378636;32;20141;-67
2022/04/15 10:40:55;;;;;;;10.60;5.80;;;;;;;18.85;31.06;99009.09;4378674;32;20453;-67
2022/04/15 10:43:27;;;;;;;10.63;5.72;;;;;;;18.88;31.40;99008.72;4378693;32;20425;-67
2022/04/15 10:46:13;;;;;;;10.77;5.30;;;;;;;18.52;32.49;99009.41;4378581;32;20129;-67
2022/04/15 10:48:41;;;;;;;8.50;5.60;;;;;;;18.65;31.64;98997.34;4378679;32;20471;-67
2022/04/15 10:51:22;;;;;;;11.93;6.82;;;;;;;18.59;30.66;99010.34;4378523;32;20440;-67
2022/04/15 10:53:49;;;;;;;9.98;5.45;;;;;;;18.63;31.07;98994.87;4378406;32;20122;-67
2022/04/15 10:56:18;;;;;;;10.90;6.55;;;;;;;18.85;30.94;98992.28;4379065;32;20459;-67
2022/04/15 11:01:59;;;;;;;12.50;6.50;;;;;;;18.92;31.84;98990.56;4380176;32;20117;-67
2022/04/15 11:04:35;;;;;;;12.57;6.80;;;;;;;19.05;31.68;98990.72;4367076;32;20098;-67
2022/04/15 11:07:14;;;;;;;11.10;6.55;;;;;;;18.91;31.45;98994.22;4380521;32;20153;-67
2022/04/15 11:09:42;;;;;;;9.70;5.72;;;;;;;18.85;31.55;99002.91;4380673;32;20089;-67
2022/04/15 11:12:11;;;;;;;10.80;5.93;;;;;;;18.77;31.68;98994.06;4380119;32;20091;-67
2022/04/15 11:14:43;;;;;;;10.27;5.30;;;;;;;18.68;31.33;98987.16;4380245;32;20109;-67
2022/04/15 11:17:12;;;;;;;11.75;6.05;;;;;;;18.37;31.20;98997.97;4380248;32;20083;-67
2022/04/15 11:19:40;;;;;;;13.13;6.45;;;;;;;18.31;32.10;99001.38;4380203;32;20157;-67
2022/04/15 11:22:08;;;;;;;15.43;6.75;;;;;;;18.51;32.72;98997.16;4380224;32;20160;-67
2022/04/15 11:24:38;;;;;;;14.35;6.85;;;;;;;18.25;34.47;99009.03;4380205;32;20083;-67
2022/04/15 11:27:09;;;;;;;10.20;6.53;;;;;;;17.80;34.46;99004.59;4380207;32;20153;-67
2022/04/15 11:29:37;;;;;;;13.52;6.72;;;;;;;17.65;34.18;98994.78;4366678;32;20449;-67
2022/04/15 11:32:06;;;;;;;15.48;6.75;;;;;;;17.74;34.15;98991.06;4380136;32;20090;-67
2022/04/15 11:34:34;;;;;;;10.48;5.80;;;;;;;17.51;34.31;99006.12;4380127;32;20441;-67
2022/04/15 11:37:04;;;;;;;10.18;5.43;;;;;;;17.60;33.92;99009.56;4380058;32;20106;-67
2022/04/15 11:39:35;;;;;;;9.57;5.55;;;;;;;17.49;32.58;99008.97;4380118;32;20094;-67
2022/04/15 11:42:09;;;;;;;9.52;5.25;;;;;;;17.16;33.39;99009.16;4380093;32;20137;-67
2022/04/15 11:44:36;;;;;;;10.80;5.07;;;;;;;17.10;32.71;99020.44;4380099;32;20075;-67